sensor_id;sensor_type;location;lat;lon;timestamp;P1;durP1;ratioP1;P2;durP2;ratioP2
73130;SDS011;64204;13.766;100.702;2023-12-29T00:00:04;28.75;;;13.18;;
73130;SDS011;64204;13.766;100.702;2023-12-29T00:05:36;26.77;;;15.57;;
73130;SDS011;64204;13.766;100.702;2023-12-29T00:10:40;24.80;;;12.45;;
73130;SDS011;64204;13.766;100.702;2023-12-29T00:13:06;24.60;;;13.43;;
73130;SDS011;64204;13.766;100.702;2023-12-29T00:19:39;30.10;;;15.50;;
73130;SDS011;64204;13.766;100.702;2023-12-29T00:22:35;30.33;;;16.90;;
73130;SDS011;64204;13.766;100.702;2023-12-29T00:31:21;22.80;;;13.73;;
73130;SDS011;64204;13.766;100.702;2023-12-29T00:34:40;28.92;;;12.90;;
73130;SDS011;64204;13.766;100.702;2023-12-29T00:40:41;26.13;;;12.18;;
73130;SDS011;64204;13.766;100.702;2023-12-29T00:46:39;27.23;;;12.40;;
73130;SDS011;64204;13.766;100.702;2023-12-29T00:52:40;28.90;;;13.68;;
73130;SDS011;64204;13.766;100.702;2023-12-29T00:55:19;31.20;;;13.82;;
73130;SDS011;64204;13.766;100.702;2023-12-29T00:58:00;22.55;;;13.35;;
73130;SDS011;64204;13.766;100.702;2023-12-29T01:01:01;19.88;;;13.07;;
73130;SDS011;64204;13.766;100.702;2023-12-29T01:03:43;23.90;;;13.10;;
73130;SDS011;64204;13.766;100.702;2023-12-29T01:09:41;25.98;;;12.75;;
73130;SDS011;64204;13.766;100.702;2023-12-29T01:12:20;23.38;;;14.07;;
73130;SDS011;64204;13.766;100.702;2023-12-29T01:14:55;22.13;;;12.73;;
73130;SDS011;64204;13.766;100.702;2023-12-29T01:20:20;23.48;;;13.70;;
73130;SDS011;64204;13.766;100.702;2023-12-29T01:28:17;24.65;;;13.95;;
73130;SDS011;64204;13.766;100.702;2023-12-29T01:31:02;25.25;;;13.75;;
73130;SDS011;64204;13.766;100.702;2023-12-29T01:33:28;24.73;;;14.30;;
73130;SDS011;64204;13.766;100.702;2023-12-29T01:36:43;30.95;;;13.30;;
73130;SDS011;64204;13.766;100.702;2023-12-29T01:48:47;25.85;;;13.63;;
73130;SDS011;64204;13.766;100.702;2023-12-29T01:51:16;23.08;;;13.82;;
73130;SDS011;64204;13.766;100.702;2023-12-29T01:53:52;22.45;;;13.98;;
73130;SDS011;64204;13.766;100.702;2023-12-29T01:56:32;25.63;;;14.18;;
73130;SDS011;64204;13.766;100.702;2023-12-29T02:02:03;20.08;;;12.98;;
73130;SDS011;64204;13.766;100.702;2023-12-29T02:04:36;19.90;;;12.95;;
73130;SDS011;64204;13.766;100.702;2023-12-29T02:07:09;19.50;;;11.80;;
73130;SDS011;64204;13.766;100.702;2023-12-29T02:09:40;23.92;;;11.55;;
73130;SDS011;64204;13.766;100.702;2023-12-29T02:12:39;22.02;;;12.77;;
73130;SDS011;64204;13.766;100.702;2023-12-29T02:15:11;19.42;;;12.02;;
73130;SDS011;64204;13.766;100.702;2023-12-29T02:20:26;18.17;;;10.82;;
73130;SDS011;64204;13.766;100.702;2023-12-29T02:25:45;20.42;;;11.40;;
73130;SDS011;64204;13.766;100.702;2023-12-29T02:28:31;17.67;;;11.48;;
73130;SDS011;64204;13.766;100.702;2023-12-29T02:33:45;19.95;;;12.63;;
73130;SDS011;64204;13.766;100.702;2023-12-29T02:36:13;19.10;;;11.38;;
73130;SDS011;64204;13.766;100.702;2023-12-29T02:38:40;20.50;;;11.32;;
73130;SDS011;64204;13.766;100.702;2023-12-29T02:41:10;19.25;;;11.20;;
73130;SDS011;64204;13.766;100.702;2023-12-29T02:43:38;18.38;;;10.27;;
73130;SDS011;64204;13.766;100.702;2023-12-29T02:46:31;20.67;;;10.77;;
73130;SDS011;64204;13.766;100.702;2023-12-29T03:02:41;14.95;;;9.15;;
73130;SDS011;64204;13.766;100.702;2023-12-29T03:24:31;9.00;;;6.07;;
73130;SDS011;64204;13.766;100.702;2023-12-29T03:27:15;11.07;;;7.15;;
73130;SDS011;64204;13.766;100.702;2023-12-29T03:50:55;8.65;;;6.45;;
73130;SDS011;64204;13.766;100.702;2023-12-29T03:56:49;9.38;;;4.55;;
73130;SDS011;64204;13.766;100.702;2023-12-29T04:12:51;12.15;;;6.03;;
73130;SDS011;64204;13.766;100.702;2023-12-29T04:15:54;9.45;;;6.78;;
73130;SDS011;64204;13.766;100.702;2023-12-29T04:28:37;10.90;;;8.00;;
73130;SDS011;64204;13.766;100.702;2023-12-29T04:47:57;10.82;;;7.30;;
73130;SDS011;64204;13.766;100.702;2023-12-29T04:50:24;11.45;;;6.95;;
73130;SDS011;64204;13.766;100.702;2023-12-29T04:53:28;12.02;;;7.63;;
73130;SDS011;64204;13.766;100.702;2023-12-29T04:56:14;11.98;;;6.72;;
73130;SDS011;64204;13.766;100.702;2023-12-29T04:58:41;16.38;;;6.95;;
73130;SDS011;64204;13.766;100.702;2023-12-29T05:01:07;14.98;;;8.52;;
73130;SDS011;64204;13.766;100.702;2023-12-29T05:03:34;12.45;;;7.55;;
73130;SDS011;64204;13.766;100.702;2023-12-29T05:06:03;11.68;;;7.78;;
73130;SDS011;64204;13.766;100.702;2023-12-29T05:11:53;10.48;;;6.68;;
73130;SDS011;64204;13.766;100.702;2023-12-29T05:14:22;8.73;;;5.72;;
73130;SDS011;64204;13.766;100.702;2023-12-29T05:16:49;13.57;;;6.28;;
73130;SDS011;64204;13.766;100.702;2023-12-29T05:19:18;11.57;;;6.93;;
73130;SDS011;64204;13.766;100.702;2023-12-29T05:21:59;15.23;;;7.15;;
73130;SDS011;64204;13.766;100.702;2023-12-29T05:27:24;14.05;;;6.00;;
73130;SDS011;64204;13.766;100.702;2023-12-29T05:29:51;12.73;;;7.00;;
73130;SDS011;64204;13.766;100.702;2023-12-29T05:32:18;13.60;;;7.57;;
73130;SDS011;64204;13.766;100.702;2023-12-29T05:34:47;11.15;;;7.07;;
73130;SDS011;64204;13.766;100.702;2023-12-29T05:37:16;8.30;;;6.28;;
73130;SDS011;64204;13.766;100.702;2023-12-29T05:39:43;6.72;;;5.32;;
73130;SDS011;64204;13.766;100.702;2023-12-29T05:42:09;13.18;;;7.47;;
73130;SDS011;64204;13.766;100.702;2023-12-29T05:44:36;10.70;;;7.85;;
73130;SDS011;64204;13.766;100.702;2023-12-29T05:47:04;12.30;;;7.78;;
73130;SDS011;64204;13.766;100.702;2023-12-29T05:49:30;16.90;;;8.13;;
73130;SDS011;64204;13.766;100.702;2023-12-29T05:52:07;13.50;;;8.88;;
73130;SDS011;64204;13.766;100.702;2023-12-29T05:54:34;18.52;;;9.05;;
73130;SDS011;64204;13.766;100.702;2023-12-29T05:57:00;10.52;;;8.60;;
73130;SDS011;64204;13.766;100.702;2023-12-29T05:59:27;11.23;;;9.07;;
73130;SDS011;64204;13.766;100.702;2023-12-29T06:01:54;10.90;;;9.23;;
73130;SDS011;64204;13.766;100.702;2023-12-29T06:04:21;12.55;;;9.60;;
73130;SDS011;64204;13.766;100.702;2023-12-29T06:06:47;12.07;;;8.73;;
73130;SDS011;64204;13.766;100.702;2023-12-29T06:12:15;15.18;;;8.95;;
73130;SDS011;64204;13.766;100.702;2023-12-29T06:15:09;12.43;;;9.05;;
73130;SDS011;64204;13.766;100.702;2023-12-29T06:20:52;11.05;;;8.55;;
73130;SDS011;64204;13.766;100.702;2023-12-29T06:29:34;11.27;;;5.82;;
73130;SDS011;64204;13.766;100.702;2023-12-29T06:32:12;10.48;;;7.28;;
73130;SDS011;64204;13.766;100.702;2023-12-29T06:35:01;11.10;;;7.22;;
73130;SDS011;64204;13.766;100.702;2023-12-29T06:37:57;9.18;;;5.70;;
73130;SDS011;64204;13.766;100.702;2023-12-29T06:40:26;8.82;;;6.15;;
73130;SDS011;64204;13.766;100.702;2023-12-29T06:42:53;11.68;;;6.43;;
73130;SDS011;64204;13.766;100.702;2023-12-29T06:49:12;7.97;;;6.25;;
73130;SDS011;64204;13.766;100.702;2023-12-29T06:51:58;9.27;;;5.65;;
73130;SDS011;64204;13.766;100.702;2023-12-29T06:54:45;8.05;;;5.55;;
73130;SDS011;64204;13.766;100.702;2023-12-29T06:57:27;8.23;;;5.78;;
73130;SDS011;64204;13.766;100.702;2023-12-29T06:59:54;8.25;;;6.47;;
73130;SDS011;64204;13.766;100.702;2023-12-29T07:02:20;7.10;;;4.88;;
73130;SDS011;64204;13.766;100.702;2023-12-29T07:08:08;7.00;;;4.93;;
73130;SDS011;64204;13.766;100.702;2023-12-29T07:10:50;9.48;;;5.47;;
73130;SDS011;64204;13.766;100.702;2023-12-29T07:13:25;7.82;;;5.38;;
73130;SDS011;64204;13.766;100.702;2023-12-29T07:18:58;6.93;;;5.15;;
73130;SDS011;64204;13.766;100.702;2023-12-29T07:21:34;7.95;;;4.88;;
73130;SDS011;64204;13.766;100.702;2023-12-29T07:24:00;7.38;;;5.28;;
73130;SDS011;64204;13.766;100.702;2023-12-29T07:26:48;6.00;;;4.80;;
73130;SDS011;64204;13.766;100.702;2023-12-29T07:32:22;9.00;;;5.82;;
73130;SDS011;64204;13.766;100.702;2023-12-29T07:35:18;7.82;;;5.03;;
73130;SDS011;64204;13.766;100.702;2023-12-29T07:37:47;8.95;;;5.82;;
73130;SDS011;64204;13.766;100.702;2023-12-29T07:40:35;6.30;;;5.60;;
73130;SDS011;64204;13.766;100.702;2023-12-29T07:43:05;17.55;;;6.18;;
73130;SDS011;64204;13.766;100.702;2023-12-29T07:45:31;7.85;;;5.72;;
73130;SDS011;64204;13.766;100.702;2023-12-29T07:48:05;8.20;;;6.28;;
73130;SDS011;64204;13.766;100.702;2023-12-29T07:50:31;11.77;;;6.30;;
73130;SDS011;64204;13.766;100.702;2023-12-29T07:53:22;9.68;;;6.00;;
73130;SDS011;64204;13.766;100.702;2023-12-29T07:55:51;8.23;;;5.60;;
73130;SDS011;64204;13.766;100.702;2023-12-29T08:00:57;8.50;;;5.32;;
73130;SDS011;64204;13.766;100.702;2023-12-29T08:03:24;9.98;;;5.93;;
73130;SDS011;64204;13.766;100.702;2023-12-29T08:05:53;9.60;;;5.95;;
73130;SDS011;64204;13.766;100.702;2023-12-29T08:08:20;7.75;;;6.15;;
73130;SDS011;64204;13.766;100.702;2023-12-29T08:10:46;10.77;;;7.18;;
73130;SDS011;64204;13.766;100.702;2023-12-29T08:13:16;8.40;;;5.72;;
73130;SDS011;64204;13.766;100.702;2023-12-29T08:15:51;9.95;;;6.70;;
73130;SDS011;64204;13.766;100.702;2023-12-29T08:18:21;9.27;;;6.53;;
73130;SDS011;64204;13.766;100.702;2023-12-29T08:20:47;8.07;;;7.07;;
73130;SDS011;64204;13.766;100.702;2023-12-29T08:23:14;13.63;;;7.45;;
73130;SDS011;64204;13.766;100.702;2023-12-29T08:25:40;8.77;;;6.93;;
73130;SDS011;64204;13.766;100.702;2023-12-29T08:28:07;14.32;;;7.43;;
73130;SDS011;64204;13.766;100.702;2023-12-29T08:30:36;11.15;;;7.40;;
73130;SDS011;64204;13.766;100.702;2023-12-29T08:33:03;13.70;;;8.93;;
73130;SDS011;64204;13.766;100.702;2023-12-29T08:35:30;13.07;;;8.07;;
73130;SDS011;64204;13.766;100.702;2023-12-29T08:37:56;10.18;;;8.05;;
73130;SDS011;64204;13.766;100.702;2023-12-29T08:40:23;13.65;;;7.13;;
73130;SDS011;64204;13.766;100.702;2023-12-29T08:42:49;11.52;;;6.40;;
73130;SDS011;64204;13.766;100.702;2023-12-29T08:45:18;6.03;;;4.30;;
73130;SDS011;64204;13.766;100.702;2023-12-29T08:47:48;5.55;;;3.60;;
73130;SDS011;64204;13.766;100.702;2023-12-29T08:50:30;7.57;;;5.75;;
73130;SDS011;64204;13.766;100.702;2023-12-29T08:53:23;6.43;;;5.20;;
73130;SDS011;64204;13.766;100.702;2023-12-29T08:55:49;8.68;;;6.28;;
73130;SDS011;64204;13.766;100.702;2023-12-29T08:58:16;9.60;;;5.45;;
73130;SDS011;64204;13.766;100.702;2023-12-29T09:03:39;6.82;;;5.18;;
73130;SDS011;64204;13.766;100.702;2023-12-29T09:06:24;7.20;;;4.80;;
73130;SDS011;64204;13.766;100.702;2023-12-29T09:08:50;7.50;;;5.50;;
73130;SDS011;64204;13.766;100.702;2023-12-29T09:11:17;10.75;;;6.50;;
73130;SDS011;64204;13.766;100.702;2023-12-29T09:16:52;8.35;;;6.15;;
73130;SDS011;64204;13.766;100.702;2023-12-29T09:19:28;9.32;;;6.13;;
73130;SDS011;64204;13.766;100.702;2023-12-29T09:21:58;9.48;;;6.25;;
73130;SDS011;64204;13.766;100.702;2023-12-29T09:24:24;8.75;;;6.55;;
73130;SDS011;64204;13.766;100.702;2023-12-29T09:26:51;13.73;;;7.15;;
73130;SDS011;64204;13.766;100.702;2023-12-29T09:29:20;10.60;;;5.97;;
73130;SDS011;64204;13.766;100.702;2023-12-29T09:35:38;8.52;;;6.30;;
73130;SDS011;64204;13.766;100.702;2023-12-29T09:41:24;12.32;;;6.35;;
73130;SDS011;64204;13.766;100.702;2023-12-29T09:44:01;11.52;;;7.20;;
73130;SDS011;64204;13.766;100.702;2023-12-29T09:49:46;12.30;;;7.63;;
73130;SDS011;64204;13.766;100.702;2023-12-29T09:58:47;10.93;;;7.70;;
73130;SDS011;64204;13.766;100.702;2023-12-29T10:01:49;12.45;;;7.70;;
73130;SDS011;64204;13.766;100.702;2023-12-29T10:04:22;10.70;;;7.10;;
73130;SDS011;64204;13.766;100.702;2023-12-29T10:06:48;11.20;;;7.32;;
73130;SDS011;64204;13.766;100.702;2023-12-29T10:09:19;13.02;;;6.80;;
73130;SDS011;64204;13.766;100.702;2023-12-29T10:11:46;9.68;;;7.15;;
73130;SDS011;64204;13.766;100.702;2023-12-29T10:14:30;14.05;;;7.88;;
73130;SDS011;64204;13.766;100.702;2023-12-29T10:17:09;9.18;;;6.90;;
73130;SDS011;64204;13.766;100.702;2023-12-29T10:19:45;11.52;;;7.10;;
73130;SDS011;64204;13.766;100.702;2023-12-29T10:22:18;10.13;;;7.10;;
73130;SDS011;64204;13.766;100.702;2023-12-29T10:25:16;9.65;;;7.35;;
73130;SDS011;64204;13.766;100.702;2023-12-29T10:27:43;12.68;;;7.75;;
73130;SDS011;64204;13.766;100.702;2023-12-29T10:30:09;10.63;;;7.93;;
73130;SDS011;64204;13.766;100.702;2023-12-29T10:32:37;15.23;;;8.30;;
73130;SDS011;64204;13.766;100.702;2023-12-29T10:35:08;11.07;;;7.80;;
73130;SDS011;64204;13.766;100.702;2023-12-29T10:37:37;13.63;;;8.38;;
73130;SDS011;64204;13.766;100.702;2023-12-29T10:40:04;14.65;;;8.20;;
73130;SDS011;64204;13.766;100.702;2023-12-29T10:42:34;10.85;;;8.13;;
73130;SDS011;64204;13.766;100.702;2023-12-29T10:45:04;13.43;;;8.93;;
73130;SDS011;64204;13.766;100.702;2023-12-29T10:47:32;15.48;;;8.63;;
73130;SDS011;64204;13.766;100.702;2023-12-29T10:50:01;15.68;;;9.85;;
73130;SDS011;64204;13.766;100.702;2023-12-29T10:52:31;16.45;;;9.23;;
73130;SDS011;64204;13.766;100.702;2023-12-29T10:55:08;18.23;;;8.60;;
73130;SDS011;64204;13.766;100.702;2023-12-29T10:57:36;13.82;;;7.80;;
73130;SDS011;64204;13.766;100.702;2023-12-29T11:00:04;14.52;;;8.40;;
73130;SDS011;64204;13.766;100.702;2023-12-29T11:02:33;14.65;;;8.70;;
73130;SDS011;64204;13.766;100.702;2023-12-29T11:07:39;12.88;;;8.80;;
73130;SDS011;64204;13.766;100.702;2023-12-29T11:10:10;14.40;;;8.05;;
73130;SDS011;64204;13.766;100.702;2023-12-29T11:12:37;11.95;;;9.15;;
73130;SDS011;64204;13.766;100.702;2023-12-29T11:15:05;12.20;;;8.43;;
73130;SDS011;64204;13.766;100.702;2023-12-29T11:17:35;15.13;;;8.88;;
73130;SDS011;64204;13.766;100.702;2023-12-29T11:20:02;13.80;;;8.77;;
73130;SDS011;64204;13.766;100.702;2023-12-29T11:22:30;13.38;;;8.05;;
73130;SDS011;64204;13.766;100.702;2023-12-29T11:24:57;13.30;;;9.05;;
73130;SDS011;64204;13.766;100.702;2023-12-29T11:27:28;17.45;;;8.88;;
73130;SDS011;64204;13.766;100.702;2023-12-29T11:30:02;15.88;;;9.18;;
73130;SDS011;64204;13.766;100.702;2023-12-29T11:35:26;17.08;;;10.73;;
73130;SDS011;64204;13.766;100.702;2023-12-29T11:40:41;18.42;;;10.63;;
73130;SDS011;64204;13.766;100.702;2023-12-29T11:43:37;21.92;;;11.90;;
73130;SDS011;64204;13.766;100.702;2023-12-29T11:49:09;19.55;;;10.32;;
73130;SDS011;64204;13.766;100.702;2023-12-29T11:51:39;17.45;;;11.88;;
73130;SDS011;64204;13.766;100.702;2023-12-29T11:54:10;20.20;;;12.48;;
73130;SDS011;64204;13.766;100.702;2023-12-29T11:56:37;21.77;;;13.23;;
73130;SDS011;64204;13.766;100.702;2023-12-29T11:59:16;24.52;;;14.07;;
73130;SDS011;64204;13.766;100.702;2023-12-29T12:01:47;25.75;;;13.30;;
73130;SDS011;64204;13.766;100.702;2023-12-29T12:04:33;22.40;;;13.95;;
73130;SDS011;64204;13.766;100.702;2023-12-29T12:07:07;23.00;;;13.48;;
73130;SDS011;64204;13.766;100.702;2023-12-29T12:09:35;25.17;;;14.15;;
73130;SDS011;64204;13.766;100.702;2023-12-29T12:12:02;25.63;;;14.52;;
73130;SDS011;64204;13.766;100.702;2023-12-29T12:14:45;21.75;;;15.18;;
73130;SDS011;64204;13.766;100.702;2023-12-29T12:17:30;31.88;;;16.05;;
73130;SDS011;64204;13.766;100.702;2023-12-29T12:19:59;27.85;;;14.65;;
73130;SDS011;64204;13.766;100.702;2023-12-29T12:22:37;24.50;;;14.50;;
73130;SDS011;64204;13.766;100.702;2023-12-29T12:25:13;27.45;;;16.38;;
73130;SDS011;64204;13.766;100.702;2023-12-29T12:27:43;39.88;;;20.35;;
73130;SDS011;64204;13.766;100.702;2023-12-29T12:30:09;45.45;;;25.90;;
73130;SDS011;64204;13.766;100.702;2023-12-29T12:32:36;40.20;;;24.58;;
73130;SDS011;64204;13.766;100.702;2023-12-29T12:35:03;42.38;;;22.38;;
73130;SDS011;64204;13.766;100.702;2023-12-29T12:37:38;41.88;;;22.20;;
73130;SDS011;64204;13.766;100.702;2023-12-29T12:40:26;46.80;;;24.40;;
73130;SDS011;64204;13.766;100.702;2023-12-29T12:42:55;52.30;;;24.30;;
73130;SDS011;64204;13.766;100.702;2023-12-29T12:45:35;35.95;;;21.40;;
73130;SDS011;64204;13.766;100.702;2023-12-29T12:50:49;24.80;;;15.75;;
73130;SDS011;64204;13.766;100.702;2023-12-29T12:53:21;24.65;;;14.88;;
73130;SDS011;64204;13.766;100.702;2023-12-29T12:55:48;26.27;;;17.55;;
73130;SDS011;64204;13.766;100.702;2023-12-29T12:58:18;30.52;;;18.95;;
73130;SDS011;64204;13.766;100.702;2023-12-29T13:00:48;28.75;;;17.92;;
73130;SDS011;64204;13.766;100.702;2023-12-29T13:03:15;34.17;;;20.20;;
73130;SDS011;64204;13.766;100.702;2023-12-29T13:05:42;28.85;;;17.52;;
73130;SDS011;64204;13.766;100.702;2023-12-29T13:08:08;28.55;;;18.23;;
73130;SDS011;64204;13.766;100.702;2023-12-29T13:10:53;28.30;;;16.17;;
73130;SDS011;64204;13.766;100.702;2023-12-29T13:13:19;29.67;;;17.45;;
73130;SDS011;64204;13.766;100.702;2023-12-29T13:15:58;27.75;;;16.65;;
73130;SDS011;64204;13.766;100.702;2023-12-29T13:18:38;24.23;;;14.77;;
73130;SDS011;64204;13.766;100.702;2023-12-29T13:21:16;26.25;;;14.35;;
73130;SDS011;64204;13.766;100.702;2023-12-29T13:24:10;22.10;;;13.40;;
73130;SDS011;64204;13.766;100.702;2023-12-29T13:26:36;24.55;;;12.90;;
73130;SDS011;64204;13.766;100.702;2023-12-29T13:29:03;21.23;;;11.60;;
73130;SDS011;64204;13.766;100.702;2023-12-29T13:31:30;22.17;;;11.68;;
73130;SDS011;64204;13.766;100.702;2023-12-29T13:33:59;18.05;;;12.48;;
73130;SDS011;64204;13.766;100.702;2023-12-29T13:37:12;21.73;;;11.95;;
73130;SDS011;64204;13.766;100.702;2023-12-29T13:40:05;25.38;;;12.07;;
73130;SDS011;64204;13.766;100.702;2023-12-29T13:42:52;20.02;;;12.30;;
73130;SDS011;64204;13.766;100.702;2023-12-29T13:45:28;21.42;;;11.70;;
73130;SDS011;64204;13.766;100.702;2023-12-29T13:47:57;25.42;;;12.57;;
73130;SDS011;64204;13.766;100.702;2023-12-29T13:50:31;20.38;;;11.85;;
73130;SDS011;64204;13.766;100.702;2023-12-29T13:52:57;20.88;;;12.23;;
73130;SDS011;64204;13.766;100.702;2023-12-29T13:57:59;19.60;;;12.50;;
73130;SDS011;64204;13.766;100.702;2023-12-29T14:00:32;23.17;;;12.43;;
73130;SDS011;64204;13.766;100.702;2023-12-29T14:06:04;24.63;;;13.95;;
73130;SDS011;64204;13.766;100.702;2023-12-29T14:11:10;21.67;;;12.02;;
73130;SDS011;64204;13.766;100.702;2023-12-29T14:13:46;21.13;;;12.88;;
73130;SDS011;64204;13.766;100.702;2023-12-29T14:16:38;21.20;;;11.27;;
73130;SDS011;64204;13.766;100.702;2023-12-29T14:19:11;32.28;;;11.60;;
73130;SDS011;64204;13.766;100.702;2023-12-29T14:21:48;16.75;;;9.95;;
73130;SDS011;64204;13.766;100.702;2023-12-29T14:24:16;22.17;;;10.73;;
73130;SDS011;64204;13.766;100.702;2023-12-29T14:29:28;18.73;;;10.18;;
73130;SDS011;64204;13.766;100.702;2023-12-29T14:31:54;22.73;;;10.52;;
73130;SDS011;64204;13.766;100.702;2023-12-29T14:34:21;20.00;;;9.98;;
73130;SDS011;64204;13.766;100.702;2023-12-29T14:36:51;21.00;;;10.05;;
73130;SDS011;64204;13.766;100.702;2023-12-29T14:45:08;18.17;;;10.55;;
73130;SDS011;64204;13.766;100.702;2023-12-29T14:47:39;16.75;;;10.00;;
73130;SDS011;64204;13.766;100.702;2023-12-29T14:50:27;19.10;;;10.80;;
73130;SDS011;64204;13.766;100.702;2023-12-29T14:52:57;15.70;;;11.15;;
73130;SDS011;64204;13.766;100.702;2023-12-29T14:55:54;16.80;;;10.93;;
73130;SDS011;64204;13.766;100.702;2023-12-29T15:01:17;18.73;;;10.88;;
73130;SDS011;64204;13.766;100.702;2023-12-29T15:03:43;21.33;;;11.68;;
73130;SDS011;64204;13.766;100.702;2023-12-29T15:06:40;18.73;;;11.70;;
73130;SDS011;64204;13.766;100.702;2023-12-29T15:09:21;20.77;;;11.60;;
73130;SDS011;64204;13.766;100.702;2023-12-29T15:11:47;19.38;;;11.32;;
73130;SDS011;64204;13.766;100.702;2023-12-29T15:17:17;17.92;;;11.75;;
73130;SDS011;64204;13.766;100.702;2023-12-29T15:19:44;20.75;;;13.40;;
73130;SDS011;64204;13.766;100.702;2023-12-29T15:22:16;18.75;;;12.20;;
73130;SDS011;64204;13.766;100.702;2023-12-29T15:24:44;20.95;;;12.77;;
73130;SDS011;64204;13.766;100.702;2023-12-29T15:27:11;18.70;;;12.35;;
73130;SDS011;64204;13.766;100.702;2023-12-29T15:29:37;21.17;;;14.05;;
73130;SDS011;64204;13.766;100.702;2023-12-29T15:32:33;26.85;;;14.07;;
73130;SDS011;64204;13.766;100.702;2023-12-29T15:34:59;24.40;;;12.68;;
73130;SDS011;64204;13.766;100.702;2023-12-29T15:40:32;21.20;;;12.73;;
73130;SDS011;64204;13.766;100.702;2023-12-29T15:42:59;21.38;;;14.20;;
73130;SDS011;64204;13.766;100.702;2023-12-29T15:45:25;20.98;;;13.27;;
73130;SDS011;64204;13.766;100.702;2023-12-29T15:47:52;24.02;;;13.10;;
73130;SDS011;64204;13.766;100.702;2023-12-29T15:50:27;21.45;;;14.00;;
73130;SDS011;64204;13.766;100.702;2023-12-29T15:52:53;25.45;;;15.27;;
73130;SDS011;64204;13.766;100.702;2023-12-29T15:55:20;22.13;;;13.75;;
73130;SDS011;64204;13.766;100.702;2023-12-29T15:58:09;23.92;;;14.23;;
73130;SDS011;64204;13.766;100.702;2023-12-29T16:00:45;24.75;;;13.35;;
73130;SDS011;64204;13.766;100.702;2023-12-29T16:03:30;23.10;;;13.18;;
73130;SDS011;64204;13.766;100.702;2023-12-29T16:06:01;21.40;;;13.27;;
73130;SDS011;64204;13.766;100.702;2023-12-29T16:08:41;24.90;;;14.55;;
73130;SDS011;64204;13.766;100.702;2023-12-29T16:11:20;25.92;;;15.18;;
73130;SDS011;64204;13.766;100.702;2023-12-29T16:13:51;24.27;;;15.25;;
73130;SDS011;64204;13.766;100.702;2023-12-29T16:16:18;23.15;;;14.93;;
73130;SDS011;64204;13.766;100.702;2023-12-29T16:18:45;26.45;;;15.65;;
73130;SDS011;64204;13.766;100.702;2023-12-29T16:21:12;28.73;;;16.45;;
73130;SDS011;64204;13.766;100.702;2023-12-29T16:24:02;30.13;;;16.27;;
73130;SDS011;64204;13.766;100.702;2023-12-29T16:26:47;26.45;;;17.02;;
73130;SDS011;64204;13.766;100.702;2023-12-29T16:29:16;30.33;;;17.65;;
73130;SDS011;64204;13.766;100.702;2023-12-29T16:32:05;33.83;;;17.95;;
73130;SDS011;64204;13.766;100.702;2023-12-29T16:34:31;29.33;;;17.35;;
73130;SDS011;64204;13.766;100.702;2023-12-29T16:37:04;25.65;;;17.20;;
73130;SDS011;64204;13.766;100.702;2023-12-29T16:39:39;31.17;;;18.05;;
73130;SDS011;64204;13.766;100.702;2023-12-29T16:42:19;30.63;;;17.73;;
73130;SDS011;64204;13.766;100.702;2023-12-29T16:44:49;32.35;;;18.98;;
73130;SDS011;64204;13.766;100.702;2023-12-29T16:50:13;32.05;;;18.35;;
73130;SDS011;64204;13.766;100.702;2023-12-29T16:52:40;30.10;;;19.33;;
73130;SDS011;64204;13.766;100.702;2023-12-29T16:58:33;28.30;;;18.65;;
73130;SDS011;64204;13.766;100.702;2023-12-29T17:01:18;28.23;;;18.25;;
73130;SDS011;64204;13.766;100.702;2023-12-29T17:04:10;34.20;;;18.88;;
73130;SDS011;64204;13.766;100.702;2023-12-29T17:09:49;29.40;;;19.13;;
73130;SDS011;64204;13.766;100.702;2023-12-29T17:15:11;29.58;;;19.02;;
73130;SDS011;64204;13.766;100.702;2023-12-29T17:17:55;35.53;;;18.45;;
73130;SDS011;64204;13.766;100.702;2023-12-29T17:20:21;27.45;;;17.45;;
73130;SDS011;64204;13.766;100.702;2023-12-29T17:22:48;32.63;;;19.65;;
73130;SDS011;64204;13.766;100.702;2023-12-29T17:25:23;29.90;;;19.10;;
73130;SDS011;64204;13.766;100.702;2023-12-29T17:27:50;31.50;;;19.30;;
73130;SDS011;64204;13.766;100.702;2023-12-29T17:30:16;33.72;;;19.85;;
73130;SDS011;64204;13.766;100.702;2023-12-29T17:32:43;29.75;;;19.30;;
73130;SDS011;64204;13.766;100.702;2023-12-29T17:35:10;34.70;;;19.98;;
73130;SDS011;64204;13.766;100.702;2023-12-29T17:37:36;32.00;;;19.95;;
73130;SDS011;64204;13.766;100.702;2023-12-29T17:40:03;30.75;;;19.10;;
73130;SDS011;64204;13.766;100.702;2023-12-29T17:42:30;33.17;;;18.60;;
73130;SDS011;64204;13.766;100.702;2023-12-29T17:44:56;33.10;;;19.98;;
73130;SDS011;64204;13.766;100.702;2023-12-29T17:47:26;28.88;;;19.67;;
73130;SDS011;64204;13.766;100.702;2023-12-29T17:49:53;29.80;;;18.42;;
73130;SDS011;64204;13.766;100.702;2023-12-29T17:52:22;32.30;;;19.35;;
73130;SDS011;64204;13.766;100.702;2023-12-29T17:54:49;27.75;;;18.95;;
73130;SDS011;64204;13.766;100.702;2023-12-29T17:57:16;32.42;;;19.27;;
73130;SDS011;64204;13.766;100.702;2023-12-29T17:59:43;29.38;;;18.85;;
73130;SDS011;64204;13.766;100.702;2023-12-29T18:02:09;35.80;;;20.60;;
73130;SDS011;64204;13.766;100.702;2023-12-29T18:04:36;37.05;;;20.83;;
73130;SDS011;64204;13.766;100.702;2023-12-29T18:07:05;29.35;;;20.35;;
73130;SDS011;64204;13.766;100.702;2023-12-29T18:09:38;31.88;;;19.65;;
73130;SDS011;64204;13.766;100.702;2023-12-29T18:12:05;39.60;;;22.77;;
73130;SDS011;64204;13.766;100.702;2023-12-29T18:14:39;31.77;;;19.75;;
73130;SDS011;64204;13.766;100.702;2023-12-29T18:20:23;31.55;;;19.27;;
73130;SDS011;64204;13.766;100.702;2023-12-29T18:22:58;32.50;;;17.80;;
73130;SDS011;64204;13.766;100.702;2023-12-29T18:25:25;31.83;;;19.05;;
73130;SDS011;64204;13.766;100.702;2023-12-29T18:28:10;36.50;;;20.42;;
73130;SDS011;64204;13.766;100.702;2023-12-29T18:30:36;34.80;;;20.88;;
73130;SDS011;64204;13.766;100.702;2023-12-29T18:33:21;36.28;;;20.10;;
73130;SDS011;64204;13.766;100.702;2023-12-29T18:35:47;34.40;;;20.10;;
73130;SDS011;64204;13.766;100.702;2023-12-29T18:38:14;33.25;;;21.05;;
73130;SDS011;64204;13.766;100.702;2023-12-29T18:40:51;34.92;;;20.58;;
73130;SDS011;64204;13.766;100.702;2023-12-29T18:43:24;37.20;;;20.70;;
73130;SDS011;64204;13.766;100.702;2023-12-29T18:46:13;37.35;;;20.77;;
73130;SDS011;64204;13.766;100.702;2023-12-29T18:48:51;38.75;;;22.65;;
73130;SDS011;64204;13.766;100.702;2023-12-29T18:51:24;35.97;;;21.05;;
73130;SDS011;64204;13.766;100.702;2023-12-29T18:54:11;37.22;;;21.55;;
73130;SDS011;64204;13.766;100.702;2023-12-29T18:56:44;35.22;;;22.08;;
73130;SDS011;64204;13.766;100.702;2023-12-29T18:59:13;33.25;;;22.30;;
73130;SDS011;64204;13.766;100.702;2023-12-29T19:01:49;35.83;;;23.52;;
73130;SDS011;64204;13.766;100.702;2023-12-29T19:04:27;33.10;;;20.63;;
73130;SDS011;64204;13.766;100.702;2023-12-29T19:07:02;34.05;;;20.83;;